РПИ Актобе

РПИ Актобе является структурным подразделением дивизиона VATRUS сети VATSIM.

РПИ осуществляет свою деятельность в границах Актюбинской, Атырауской, Мангистауской и Западно-Казахстанской областей Республики Казахстан.

Схемы и аэронавигационную информацию можно получить на сайте   Казаэронавигация

Официальный Discord сервер региона Казахстан в VATSIM: https://discord.gg/eERFMeb2xR

Средства связи ОВД:

UATT_CTR - Актобе Контроль - 129.600

RU-CEN_FSS - Азия Центр  - 132.850 (РПИ: UACN, UAAA, UAII, UATT, UTAA, UCFM, UTAT, UTDD, UTTRUCFOUTSD, UTAVUTAK)

Лого Актобе
Руководство

Evgeny Vygornitsky*

Куратор

Dmitriy Bannov

Помощник куратора по Казахстану

Aleksandr Sokolov

Помощник куратора по Казахстану
Инструкторы РПИ
Aleksandr Sokolov (Instructor)
Evgeny Vygornitsky (Supervisor)
Входит в состав
Центральная Азия

Диспетчеры РПИ

Диспетчер Рейтинг Допуски *

Аэропорты РПИ

ICAO Город Название Погода
UATT Актобе Актобе UATT 221200Z 11009MPS CAVOK 27/08 Q1018 NOSIG RMK QFE744/0992
UATG Атырау Атырау UATG 221200Z 09007MPS 9999 FEW033CB 31/04 Q1011 NOSIG RMK QFE760/1013
UARR Уральск Уральск UARR 221200Z 12008MPS CAVOK 28/08 Q1016 NOSIG RMK QFE758/1011